Time;durP1;ratioP1;P1;durP2;ratioP2;P2;SDS_P1;SDS_P2;PMS_P1;PMS_P2;Temp;Humidity;BMP_temperature;BMP_pressure;BME280_temperature;BME280_humidity;BME280_pressure;Samples;Min_cycle;Max_cycle;Signal;HPM_P1;HPM_P2
2023/07/24 00:02:43;;;;;;;6.18;4.50;;;19.10;1.00;;;;;;20874633;28;20401;-43
2023/07/24 00:12:44;;;;;;;5.57;3.83;;;19.10;1.00;;;;;;20889458;28;20040;-43
2023/07/24 00:22:45;;;;;;;6.20;3.97;;;19.00;1.00;;;;;;20884515;28;20041;-43
2023/07/24 00:32:46;;;;;;;6.40;3.58;;;19.00;1.00;;;;;;20886699;28;20346;-43
2023/07/24 00:42:48;;;;;;;6.45;4.10;;;19.00;1.00;;;;;;20882133;28;20805;-43
2023/07/24 00:52:49;;;;;;;4.85;3.30;;;18.90;1.00;;;;;;20883397;28;20048;-43
2023/07/24 01:02:51;;;;;;;6.90;4.05;;;18.70;1.00;;;;;;20877422;28;20043;-43
2023/07/24 01:13:15;;;;;;;5.25;4.15;;;18.60;1.00;;;;;;20873171;28;20522;-43
2023/07/24 01:23:34;;;;;;;8.57;4.20;;;18.50;1.00;;;;;;20870638;28;20478;-44
2023/07/24 01:33:36;;;;;;;6.60;4.50;;;18.50;2.70;;;;;;20868010;28;20037;-44
2023/07/24 01:43:38;;;;;;;6.53;4.47;;;18.70;1.00;;;;;;20870762;28;20048;-43
2023/07/24 01:53:39;;;;;;;7.43;4.35;;;18.40;1.00;;;;;;20875351;28;20462;-43
2023/07/24 02:03:40;;;;;;;6.80;3.88;;;18.30;4.80;;;;;;20869473;28;20052;-43
2023/07/24 02:13:43;;;;;;;5.70;3.58;;;18.30;10.90;;;;;;20871569;28;20077;-44
2023/07/24 02:23:44;;;;;;;5.85;4.13;;;18.30;19.60;;;;;;20875185;28;20048;-44
2023/07/24 02:33:45;;;;;;;5.75;3.83;;;18.30;26.50;;;;;;20887329;28;20049;-44
2023/07/24 02:43:46;;;;;;;6.32;4.00;;;18.20;34.50;;;;;;20881197;28;20056;-43
2023/07/24 02:53:47;;;;;;;4.63;3.60;;;18.40;24.10;;;;;;20882297;28;20052;-43
2023/07/24 03:03:49;;;;;;;5.85;3.90;;;18.30;21.90;;;;;;20881635;28;20043;-43
2023/07/24 03:13:50;;;;;;;6.07;3.97;;;18.40;23.30;;;;;;20879086;28;20044;-44
2023/07/24 03:23:51;;;;;;;6.93;4.28;;;18.30;29.80;;;;;;20880494;28;20044;-43
2023/07/24 03:33:52;;;;;;;8.00;5.35;;;18.20;31.00;;;;;;20894424;28;20081;-43
2023/07/24 03:43:53;;;;;;;8.98;6.47;;;18.20;42.20;;;;;;20894674;28;20040;-43
2023/07/24 03:53:54;;;;;;;9.05;6.35;;;18.20;24.70;;;;;;20896884;28;20491;-43
2023/07/24 04:03:55;;;;;;;7.97;6.03;;;18.20;31.30;;;;;;20893652;28;20036;-43
2023/07/24 04:13:56;;;;;;;8.48;5.68;;;18.00;44.20;;;;;;20895057;28;20048;-43
2023/07/24 04:23:57;;;;;;;8.50;5.40;;;17.90;36.50;;;;;;20890844;28;20036;-43
2023/07/24 04:33:58;;;;;;;8.93;5.38;;;17.90;44.50;;;;;;20896248;28;21879;-43
2023/07/24 04:43:59;;;;;;;8.95;5.25;;;17.80;58.40;;;;;;20889434;28;20570;-43
2023/07/24 04:54:00;;;;;;;7.18;5.35;;;17.80;63.60;;;;;;20890982;28;20056;-43
2023/07/24 05:04:01;;;;;;;8.30;5.22;;;17.90;53.10;;;;;;20888238;28;20036;-43
2023/07/24 05:14:04;;;;;;;10.98;6.03;;;17.80;62.40;;;;;;20888586;28;20459;-43
2023/07/24 05:24:05;;;;;;;10.60;6.95;;;17.90;51.10;;;;;;20877191;28;20045;-43
2023/07/24 05:34:06;;;;;;;11.65;7.45;;;17.90;42.00;;;;;;20867195;28;20311;-43
2023/07/24 05:44:07;;;;;;;11.35;6.40;;;18.10;30.70;;;;;;20875344;28;20519;-42
2023/07/24 05:54:08;;;;;;;10.48;5.78;;;18.10;31.80;;;;;;20886863;28;20048;-42
2023/07/24 06:04:09;;;;;;;9.10;4.53;;;18.20;22.20;;;;;;20895316;28;20068;-43
2023/07/24 06:14:10;;;;;;;8.15;4.10;;;18.30;1.00;;;;;;20900936;28;20538;-42
2023/07/24 06:24:12;;;;;;;8.68;3.38;;;18.40;1.00;;;;;;20895394;28;20045;-42
2023/07/24 06:34:13;;;;;;;10.25;4.20;;;18.50;1.00;;;;;;20890998;28;20037;-43
2023/07/24 06:44:14;;;;;;;7.07;3.50;;;18.80;1.00;;;;;;20884790;28;20037;-43
2023/07/24 06:54:15;;;;;;;8.80;3.65;;;19.00;1.00;;;;;;20884888;28;20409;-43
2023/07/24 07:04:16;;;;;;;6.13;3.65;;;19.20;1.00;;;;;;20879718;28;20037;-42
2023/07/24 07:14:17;;;;;;;7.70;3.88;;;19.20;1.00;;;;;;20881931;28;20045;-42
2023/07/24 07:24:18;;;;;;;6.93;3.50;;;19.40;1.00;;;;;;20878299;28;20044;-43
2023/07/24 07:34:19;;;;;;;8.88;3.75;;;19.60;1.00;;;;;;20878536;28;20043;-43
2023/07/24 07:44:21;;;;;;;7.95;4.05;;;19.70;1.00;;;;;;20888012;28;20041;-42
2023/07/24 07:54:22;;;;;;;6.65;3.63;;;19.60;1.00;;;;;;20882201;28;20420;-42
2023/07/24 08:04:23;;;;;;;8.18;3.92;;;19.80;1.00;;;;;;20886570;28;20269;-42
2023/07/24 08:14:24;;;;;;;7.90;4.22;;;20.10;1.00;;;;;;20884641;28;20047;-42
2023/07/24 08:24:25;;;;;;;10.50;5.18;;;20.40;1.00;;;;;;20877989;28;20048;-42
2023/07/24 08:34:26;;;;;;;11.43;5.30;;;20.30;1.00;;;;;;20884004;28;20377;-43
2023/07/24 08:44:30;;;;;;;9.45;5.13;;;20.60;1.00;;;;;;20886435;28;20044;-42
2023/07/24 08:54:35;;;;;;;8.73;5.63;;;21.10;1.00;;;;;;20882946;28;20519;-43
2023/07/24 09:04:36;;;;;;;8.50;4.72;;;20.90;1.00;;;;;;20883210;28;20615;-42
2023/07/24 09:14:38;;;;;;;8.45;4.93;;;20.70;1.00;;;;;;20884945;28;20040;-42
2023/07/24 09:24:53;;;;;;;11.80;6.60;;;20.50;1.00;;;;;;20884085;28;21505;-42
2023/07/24 09:34:54;;;;;;;12.57;6.47;;;20.60;1.00;;;;;;20888177;28;20068;-42
2023/07/24 09:44:55;;;;;;;9.25;5.78;;;20.20;1.00;;;;;;20892536;28;20570;-42
2023/07/24 09:55:13;;;;;;;10.95;5.72;;;20.40;1.00;;;;;;20888746;28;20048;-42
2023/07/24 10:05:15;;;;;;;7.55;5.15;;;21.00;1.00;;;;;;20894663;28;20321;-42
2023/07/24 10:15:17;;;;;;;8.43;5.47;;;22.60;1.00;;;;;;20899860;28;20045;-42
2023/07/24 10:25:28;;;;;;;9.18;5.38;;;23.10;1.00;;;;;;20902267;28;20560;-42
2023/07/24 10:35:47;;;;;;;9.32;5.88;;;23.10;1.00;;;;;;20885242;28;20520;-42
2023/07/24 10:45:51;;;;;;;7.43;5.22;;;22.20;1.00;;;;;;20887814;28;20468;-42
2023/07/24 10:55:52;;;;;;;9.90;5.57;;;22.70;1.00;;;;;;20903745;28;20040;-42
2023/07/24 11:05:54;;;;;;;13.20;5.70;;;21.80;1.00;;;;;;20899767;28;20032;-42
2023/07/24 11:15:55;;;;;;;8.88;6.00;;;21.20;1.00;;;;;;20899980;28;20044;-42
2023/07/24 11:25:56;;;;;;;7.25;4.47;;;21.10;1.00;;;;;;20901759;28;20037;-42
2023/07/24 11:35:58;;;;;;;7.80;4.22;;;21.80;1.00;;;;;;20896918;28;20441;-42
2023/07/24 11:45:59;;;;;;;4.57;2.75;;;23.10;1.00;;;;;;20897367;28;20036;-42
2023/07/24 11:56:03;;;;;;;4.57;3.03;;;22.60;1.00;;;;;;20895562;28;20458;-42
2023/07/24 12:06:04;;;;;;;6.80;3.38;;;22.10;1.00;;;;;;20893325;28;20043;-42
2023/07/24 12:16:05;;;;;;;5.35;3.50;;;21.80;1.00;;;;;;20892201;28;20432;-42
2023/07/24 12:26:07;;;;;;;6.43;3.92;;;21.50;1.00;;;;;;20897127;28;20415;-42
2023/07/24 12:36:08;;;;;;;4.97;3.25;;;21.40;1.00;;;;;;20888135;28;20057;-43
2023/07/24 12:46:09;;;;;;;4.28;2.65;;;21.40;1.00;;;;;;20885349;28;20329;-42
2023/07/24 12:56:10;;;;;;;3.40;1.90;;;22.30;1.00;;;;;;20885677;28;20036;-42
2023/07/24 13:06:11;;;;;;;3.30;1.75;;;22.70;1.00;;;;;;20883277;28;20040;-42
2023/07/24 13:16:12;;;;;;;7.28;1.80;;;22.20;1.00;;;;;;20876064;28;20043;-43
2023/07/24 13:26:14;;;;;;;2.83;1.70;;;21.90;1.00;;;;;;20877917;28;20033;-42
2023/07/24 13:36:15;;;;;;;4.50;1.52;;;22.50;1.00;;;;;;20869602;28;20045;-42
2023/07/24 13:46:16;;;;;;;5.28;1.70;;;22.70;1.00;;;;;;20868237;28;20531;-42
2023/07/24 13:56:23;;;;;;;5.80;1.75;;;22.50;1.00;;;;;;20872523;28;20041;-42
2023/07/24 14:06:24;;;;;;;5.77;1.60;;;22.40;1.00;;;;;;20815073;28;20488;-43
2023/07/24 14:16:25;;;;;;;3.40;1.48;;;21.80;1.00;;;;;;20860592;28;20030;-43
2023/07/24 14:26:26;;;;;;;3.90;1.60;;;22.00;1.00;;;;;;20857939;28;20416;-43
2023/07/24 14:36:33;;;;;;;4.10;1.50;;;21.90;1.00;;;;;;20873300;28;20041;-43
2023/07/24 14:46:34;;;;;;;5.43;1.90;;;21.80;1.00;;;;;;20869995;28;20037;-43
2023/07/24 14:56:35;;;;;;;5.60;1.40;;;21.70;1.00;;;;;;20861824;28;20037;-43
2023/07/24 15:06:36;;;;;;;3.42;1.40;;;21.80;1.00;;;;;;20887601;28;20048;-43
2023/07/24 15:16:37;;;;;;;4.97;1.38;;;21.40;1.00;;;;;;20845097;28;20029;-42
2023/07/24 15:26:38;;;;;;;3.67;1.10;;;20.70;1.00;;;;;;20873044;28;20608;-42
2023/07/24 15:36:39;;;;;;;2.38;0.88;;;20.20;1.00;;;;;;20885873;28;20079;-42
2023/07/24 15:46:40;;;;;;;2.40;0.60;;;19.60;1.00;;;;;;20904602;28;20049;-42
2023/07/24 15:56:41;;;;;;;3.67;0.60;;;19.50;1.00;;;;;;20895587;28;20040;-42
2023/07/24 16:06:42;;;;;;;3.22;0.70;;;19.40;1.00;;;;;;20894322;28;20036;-43
2023/07/24 16:16:43;;;;;;;3.00;1.10;;;19.00;1.00;;;;;;20878282;28;20488;-42
2023/07/24 16:26:45;;;;;;;3.13;1.10;;;18.70;1.00;;;;;;20873796;28;20032;-42
2023/07/24 16:36:46;;;;;;;3.90;1.40;;;18.60;1.00;;;;;;20880657;28;20460;-42
2023/07/24 16:46:47;;;;;;;4.05;1.30;;;18.40;1.00;;;;;;20870309;28;21503;-42
2023/07/24 16:56:48;;;;;;;3.03;0.95;;;18.40;1.00;;;;;;20838449;28;20043;-42
2023/07/24 17:06:49;;;;;;;3.17;0.80;;;18.40;1.00;;;;;;20882638;28;20705;-43
2023/07/24 17:16:50;;;;;;;2.92;0.80;;;18.50;1.00;;;;;;20868542;28;20056;-42
2023/07/24 17:26:51;;;;;;;2.25;0.77;;;18.60;1.00;;;;;;20862674;28;20055;-42
2023/07/24 17:36:52;;;;;;;2.40;1.17;;;18.50;1.00;;;;;;20855139;28;20048;-42
2023/07/24 17:46:53;;;;;;;3.05;0.90;;;18.10;1.00;;;;;;20866332;28;20507;-42
2023/07/24 17:56:57;;;;;;;6.40;1.80;;;18.10;1.00;;;;;;20839066;28;20059;-42
2023/07/24 18:06:58;;;;;;;3.17;1.20;;;18.10;1.00;;;;;;20849882;28;20251;-42
2023/07/24 18:16:59;;;;;;;3.58;1.40;;;18.10;1.00;;;;;;20838556;28;20040;-42
2023/07/24 18:27:00;;;;;;;3.08;1.02;;;17.80;1.00;;;;;;20877668;28;20032;-42
2023/07/24 18:37:01;;;;;;;2.35;1.05;;;17.60;1.00;;;;;;20873107;28;20075;-42
2023/07/24 18:47:03;;;;;;;3.55;1.40;;;17.40;1.00;;;;;;20886391;28;20495;-42
2023/07/24 18:57:04;;;;;;;5.80;2.03;;;17.20;1.00;;;;;;20878225;28;20033;-42
2023/07/24 19:07:05;;;;;;;3.83;1.10;;;17.20;1.00;;;;;;20876406;28;20526;-42
2023/07/24 19:17:06;;;;;;;5.72;1.70;;;17.20;1.00;;;;;;20889344;28;20033;-42
2023/07/24 19:27:07;;;;;;;4.05;1.02;;;17.10;1.00;;;;;;20884042;28;20514;-42
2023/07/24 19:37:08;;;;;;;3.83;1.38;;;17.00;1.00;;;;;;20852207;28;20071;-42
2023/07/24 19:47:09;;;;;;;3.30;0.90;;;17.00;1.00;;;;;;20871158;28;20051;-42
2023/07/24 19:57:11;;;;;;;6.07;1.23;;;16.80;1.00;;;;;;20872461;28;20044;-42
2023/07/24 20:07:12;;;;;;;5.35;1.60;;;16.60;1.00;;;;;;20872576;28;20048;-42
2023/07/24 20:17:14;;;;;;;5.38;1.50;;;16.40;1.00;;;;;;20875588;28;20060;-42
2023/07/24 20:27:15;;;;;;;4.85;1.75;;;16.20;1.00;;;;;;20869919;28;20047;-42
2023/07/24 20:37:16;;;;;;;4.18;1.48;;;16.00;1.00;;;;;;20881674;28;20048;-42
2023/07/24 20:47:17;;;;;;;5.05;2.00;;;15.90;1.00;;;;;;20880699;28;20057;-42
2023/07/24 20:57:18;;;;;;;5.82;1.48;;;15.70;1.00;;;;;;20885834;28;20261;-42
2023/07/24 21:07:19;;;;;;;4.38;1.55;;;15.60;1.00;;;;;;20889348;28;20040;-42
2023/07/24 21:17:20;;;;;;;6.05;2.13;;;15.40;1.00;;;;;;20875659;28;21555;-42
2023/07/24 21:27:21;;;;;;;5.35;2.00;;;15.20;1.00;;;;;;20872944;28;20037;-42
2023/07/24 21:37:22;;;;;;;6.15;2.10;;;15.00;1.00;;;;;;20866200;28;20055;-42
2023/07/24 21:47:25;;;;;;;7.53;2.25;;;14.80;1.00;;;;;;20869768;28;20051;-42
2023/07/24 21:57:26;;;;;;;7.05;2.35;;;14.70;1.00;;;;;;20847307;28;20046;-42
2023/07/24 22:07:27;;;;;;;9.00;2.38;;;14.50;1.00;;;;;;20836789;28;20377;-42
2023/07/24 22:17:28;;;;;;;5.72;2.70;;;14.40;1.00;;;;;;20866013;28;20041;-42
2023/07/24 22:27:29;;;;;;;5.20;2.83;;;14.30;1.00;;;;;;20805613;28;20044;-42
2023/07/24 22:37:30;;;;;;;7.25;3.17;;;14.10;1.00;;;;;;20798677;28;20052;-42
2023/07/24 22:47:32;;;;;;;5.30;3.05;;;14.00;1.00;;;;;;20787349;28;20045;-42
2023/07/24 22:57:33;;;;;;;8.60;3.40;;;13.90;1.00;;;;;;20795911;28;20458;-42
2023/07/24 23:07:34;;;;;;;6.53;2.83;;;13.90;1.00;;;;;;20789997;28;20390;-42
2023/07/24 23:17:35;;;;;;;7.32;2.85;;;13.80;1.00;;;;;;20796495;28;20052;-42
2023/07/24 23:27:36;;;;;;;7.72;3.45;;;13.70;1.00;;;;;;20769508;28;20033;-42
2023/07/24 23:37:37;;;;;;;5.47;3.47;;;13.50;1.00;;;;;;20778470;28;20153;-42
2023/07/24 23:47:38;;;;;;;6.70;2.58;;;13.50;1.00;;;;;;20799384;28;20041;-41
2023/07/24 23:57:39;;;;;;;7.35;3.42;;;13.40;1.00;;;;;;20805078;28;20040;-41
